Aviation Digital Data Service (ADDS)

Output produced by METARs form (1733 UTC 20 January 2019)
found at http://www.aviationweather.gov/metar/data/
 
METAR text: UTSB 201700Z 23012KT 9999 FEW010 BKN028CB 03/M02 Q1025 R01/CLRD70 NOSIG
Conditions at: UTSB (BUKHARA , UZ) observed 1700 UTC 20 January 2019
Temperature: 3.0°C (37°F)
Dewpoint: -2.0°C (28°F) [RH = 70%]
Pressure (altimeter): 30.27 inches Hg (1025.0 mb)
Winds: from the SW (230 degrees) at 14 MPH (12 knots; 6.2 m/s)
Visibility: 6 or more miles (10+ km)
Ceiling: 2800 feet AGL
Clouds: few clouds at 1000 feet AGL
broken clouds at 2800 feet AGL
Weather: no significant weather observed at this time

METAR text: UTSB 201630Z 22012KT 9999 BKN048CB 03/M02 Q1025 R19/CLRD70 NOSIG
Conditions at: UTSB (BUKHARA , UZ) observed 1630 UTC 20 January 2019
Temperature: 3.0°C (37°F)
Dewpoint: -2.0°C (28°F) [RH = 70%]
Pressure (altimeter): 30.27 inches Hg (1025.0 mb)
Winds: from the SW (220 degrees) at 14 MPH (12 knots; 6.2 m/s)
Visibility: 6 or more miles (10+ km)
Ceiling: 4800 feet AGL
Clouds: broken clouds at 4800 feet AGL
Weather: no significant weather observed at this time

METAR text: UTSB 201600Z 22010KT 9999 OVC022CB 03/M02 Q1024 R19/190065 NOSIG
Conditions at: UTSB (BUKHARA , UZ) observed 1600 UTC 20 January 2019
Temperature: 3.0°C (37°F)
Dewpoint: -2.0°C (28°F) [RH = 70%]
Pressure (altimeter): 30.24 inches Hg (1024.0 mb)
Winds: from the SW (220 degrees) at 12 MPH (10 knots; 5.1 m/s)
Visibility: 6 or more miles (10+ km)
Ceiling: 2200 feet AGL
Clouds: overcast cloud deck at 2200 feet AGL
Weather: no significant weather observed at this time

METAR text: UTSB 201530Z 22010KT 9999 OVC037CB 03/M02 Q1024 R19/190065 NOSIG
Conditions at: UTSB (BUKHARA , UZ) observed 1530 UTC 20 January 2019
Temperature: 3.0°C (37°F)
Dewpoint: -2.0°C (28°F) [RH = 70%]
Pressure (altimeter): 30.24 inches Hg (1024.0 mb)
Winds: from the SW (220 degrees) at 12 MPH (10 knots; 5.1 m/s)
Visibility: 6 or more miles (10+ km)
Ceiling: 3700 feet AGL
Clouds: overcast cloud deck at 3700 feet AGL
Weather: no significant weather observed at this time

METAR text: UTSB 201500Z 21010KT 9999 OVC029CB 03/M02 Q1024 R19/CLRD70 NOSIG
Conditions at: UTSB (BUKHARA , UZ) observed 1500 UTC 20 January 2019
Temperature: 3.0°C (37°F)
Dewpoint: -2.0°C (28°F) [RH = 70%]
Pressure (altimeter): 30.24 inches Hg (1024.0 mb)
Winds: from the SSW (210 degrees) at 12 MPH (10 knots; 5.1 m/s)
Visibility: 6 or more miles (10+ km)
Ceiling: 2900 feet AGL
Clouds: overcast cloud deck at 2900 feet AGL
Weather: no significant weather observed at this time

METAR text: UTSB 201430Z 22010KT 9999 OVC037CB 03/M02 Q1023 R19/CLRD70 NOSIG
Conditions at: UTSB (BUKHARA , UZ) observed 1430 UTC 20 January 2019
Temperature: 3.0°C (37°F)
Dewpoint: -2.0°C (28°F) [RH = 70%]
Pressure (altimeter): 30.21 inches Hg (1023.0 mb)
Winds: from the SW (220 degrees) at 12 MPH (10 knots; 5.1 m/s)
Visibility: 6 or more miles (10+ km)
Ceiling: 3700 feet AGL
Clouds: overcast cloud deck at 3700 feet AGL
Weather: no significant weather observed at this time

METAR text: UTSB 201400Z 22012KT 8000 SHSN OVC037CB 02/M00 Q1023 R01/CLRD70 NOSIG
Conditions at: UTSB (BUKHARA , UZ) observed 1400 UTC 20 January 2019
Temperature: 2.0°C (36°F)
Dewpoint: 0.0°C (32°F) [RH = 87%]
Pressure (altimeter): 30.21 inches Hg (1023.0 mb)
Winds: from the SW (220 degrees) at 14 MPH (12 knots; 6.2 m/s)
Visibility: 5 miles ( 8 km)
Ceiling: 3700 feet AGL
Clouds: overcast cloud deck at 3700 feet AGL
Weather: SHSN  (snow showers)

METAR text: UTSB 201330Z 22012KT 9999 OVC031 03/M02 Q1023 R19/CLRD70 NOSIG
Conditions at: UTSB (BUKHARA , UZ) observed 1330 UTC 20 January 2019
Temperature: 3.0°C (37°F)
Dewpoint: -2.0°C (28°F) [RH = 70%]
Pressure (altimeter): 30.21 inches Hg (1023.0 mb)
Winds: from the SW (220 degrees) at 14 MPH (12 knots; 6.2 m/s)
Visibility: 6 or more miles (10+ km)
Ceiling: 3100 feet AGL
Clouds: overcast cloud deck at 3100 feet AGL
Weather: no significant weather observed at this time

METAR text: UTSB 201300Z 24010KT 210V280 9999 OVC036CB 03/M03 Q1023 R19/CLRD70 NOSIG
Conditions at: UTSB (BUKHARA , UZ) observed 1300 UTC 20 January 2019
Temperature: 3.0°C (37°F)
Dewpoint: -3.0°C (27°F) [RH = 65%]
Pressure (altimeter): 30.21 inches Hg (1023.0 mb)
Winds: from the WSW (240 degrees) at 12 MPH (10 knots; 5.1 m/s)
Visibility: 6 or more miles (10+ km)
Ceiling: 3600 feet AGL
Clouds: overcast cloud deck at 3600 feet AGL
Weather: no significant weather observed at this time

METAR text: UTSB 201230Z 23008KT 9999 -SHGS OVC034CB 03/M01 Q1022 R19/CLRD70 NOSIG
Conditions at: UTSB (BUKHARA , UZ) observed 1230 UTC 20 January 2019
Temperature: 3.0°C (37°F)
Dewpoint: -1.0°C (30°F) [RH = 75%]
Pressure (altimeter): 30.18 inches Hg (1022.0 mb)
Winds: from the SW (230 degrees) at 9 MPH (8 knots; 4.1 m/s)
Visibility: 6 or more miles (10+ km)
Ceiling: 3400 feet AGL
Clouds: overcast cloud deck at 3400 feet AGL
Weather: -SHGS  (unknown weather)

METAR text: UTSB 201200Z 23010KT 9999 -SHGS OVC030CB 02/M01 Q1022 R19/CLRD70 NOSIG
Conditions at: UTSB (BUKHARA , UZ) observed 1200 UTC 20 January 2019
Temperature: 2.0°C (36°F)
Dewpoint: -1.0°C (30°F) [RH = 80%]
Pressure (altimeter): 30.18 inches Hg (1022.0 mb)
Winds: from the SW (230 degrees) at 12 MPH (10 knots; 5.1 m/s)
Visibility: 6 or more miles (10+ km)
Ceiling: 3000 feet AGL
Clouds: overcast cloud deck at 3000 feet AGL
Weather: -SHGS  (unknown weather)

METAR text: UTSB 201130Z 22012KT 9999 -SHGS OVC019CB 03/M02 Q1022 R01/CLRD70 NOSIG
Conditions at: UTSB (BUKHARA , UZ) observed 1130 UTC 20 January 2019
Temperature: 3.0°C (37°F)
Dewpoint: -2.0°C (28°F) [RH = 70%]
Pressure (altimeter): 30.18 inches Hg (1022.0 mb)
Winds: from the SW (220 degrees) at 14 MPH (12 knots; 6.2 m/s)
Visibility: 6 or more miles (10+ km)
Ceiling: 1900 feet AGL
Clouds: overcast cloud deck at 1900 feet AGL
Weather: -SHGS  (unknown weather)

METAR text: UTSB 201100Z 21012KT 9999 OVC028CB 03/M02 Q1022 R01/CLRD70 NOSIG
Conditions at: UTSB (BUKHARA , UZ) observed 1100 UTC 20 January 2019
Temperature: 3.0°C (37°F)
Dewpoint: -2.0°C (28°F) [RH = 70%]
Pressure (altimeter): 30.18 inches Hg (1022.0 mb)
Winds: from the SSW (210 degrees) at 14 MPH (12 knots; 6.2 m/s)
Visibility: 6 or more miles (10+ km)
Ceiling: 2800 feet AGL
Clouds: overcast cloud deck at 2800 feet AGL
Weather: no significant weather observed at this time

METAR text: UTSB 201030Z 22014KT 190V250 9999 OVC028CB 03/M02 Q1021 R01/CLRD70 NOSIG
Conditions at: UTSB (BUKHARA , UZ) observed 1030 UTC 20 January 2019
Temperature: 3.0°C (37°F)
Dewpoint: -2.0°C (28°F) [RH = 70%]
Pressure (altimeter): 30.15 inches Hg (1021.0 mb)
Winds: from the SW (220 degrees) at 16 MPH (14 knots; 7.2 m/s)
Visibility: 6 or more miles (10+ km)
Ceiling: 2800 feet AGL
Clouds: overcast cloud deck at 2800 feet AGL
Weather: no significant weather observed at this time

METAR text: UTSB 201000Z 22014KT 9999 -SHGS OVC026CB 03/M03 Q1021 R01/CLRD70 NOSIG
Conditions at: UTSB (BUKHARA , UZ) observed 1000 UTC 20 January 2019
Temperature: 3.0°C (37°F)
Dewpoint: -3.0°C (27°F) [RH = 65%]
Pressure (altimeter): 30.15 inches Hg (1021.0 mb)
Winds: from the SW (220 degrees) at 16 MPH (14 knots; 7.2 m/s)
Visibility: 6 or more miles (10+ km)
Ceiling: 2600 feet AGL
Clouds: overcast cloud deck at 2600 feet AGL
Weather: -SHGS  (unknown weather)

METAR text: UTSB 200930Z 22014KT 9999 -SHGS OVC026CB 03/M02 Q1021 R01/CLRD70 NOSIG
Conditions at: UTSB (BUKHARA , UZ) observed 0930 UTC 20 January 2019
Temperature: 3.0°C (37°F)
Dewpoint: -2.0°C (28°F) [RH = 70%]
Pressure (altimeter): 30.15 inches Hg (1021.0 mb)
Winds: from the SW (220 degrees) at 16 MPH (14 knots; 7.2 m/s)
Visibility: 6 or more miles (10+ km)
Ceiling: 2600 feet AGL
Clouds: overcast cloud deck at 2600 feet AGL
Weather: -SHGS  (unknown weather)

METAR text: UTSB 200900Z 23014KT 9999 OVC025 03/M03 Q1021 R01/CLRD70 NOSIG
Conditions at: UTSB (BUKHARA , UZ) observed 0900 UTC 20 January 2019
Temperature: 3.0°C (37°F)
Dewpoint: -3.0°C (27°F) [RH = 65%]
Pressure (altimeter): 30.15 inches Hg (1021.0 mb)
Winds: from the SW (230 degrees) at 16 MPH (14 knots; 7.2 m/s)
Visibility: 6 or more miles (10+ km)
Ceiling: 2500 feet AGL
Clouds: overcast cloud deck at 2500 feet AGL
Weather: no significant weather observed at this time

METAR text: UTSB 200830Z 22014KT 9999 OVC029 03/M03 Q1021 R01/CLRD70 NOSIG
Conditions at: UTSB (BUKHARA , UZ) observed 0830 UTC 20 January 2019
Temperature: 3.0°C (37°F)
Dewpoint: -3.0°C (27°F) [RH = 65%]
Pressure (altimeter): 30.15 inches Hg (1021.0 mb)
Winds: from the SW (220 degrees) at 16 MPH (14 knots; 7.2 m/s)
Visibility: 6 or more miles (10+ km)
Ceiling: 2900 feet AGL
Clouds: overcast cloud deck at 2900 feet AGL
Weather: no significant weather observed at this time

METAR text: UTSB 200800Z 23014KT 9999 OVC027 03/M03 Q1020 R01/CLRD70 NOSIG
Conditions at: UTSB (BUKHARA , UZ) observed 0800 UTC 20 January 2019
Temperature: 3.0°C (37°F)
Dewpoint: -3.0°C (27°F) [RH = 65%]
Pressure (altimeter): 30.12 inches Hg (1020.0 mb)
Winds: from the SW (230 degrees) at 16 MPH (14 knots; 7.2 m/s)
Visibility: 6 or more miles (10+ km)
Ceiling: 2700 feet AGL
Clouds: overcast cloud deck at 2700 feet AGL
Weather: no significant weather observed at this time

METAR text: UTSB 200730Z 23012KT 9999 OVC024 03/M03 Q1021 R01/CLRD70 NOSIG
Conditions at: UTSB (BUKHARA , UZ) observed 0730 UTC 20 January 2019
Temperature: 3.0°C (37°F)
Dewpoint: -3.0°C (27°F) [RH = 65%]
Pressure (altimeter): 30.15 inches Hg (1021.0 mb)
Winds: from the SW (230 degrees) at 14 MPH (12 knots; 6.2 m/s)
Visibility: 6 or more miles (10+ km)
Ceiling: 2400 feet AGL
Clouds: overcast cloud deck at 2400 feet AGL
Weather: no significant weather observed at this time

METAR text: UTSB 200700Z 22012KT 9999 BKN024 03/M03 Q1021 R01/CLRD70 NOSIG
Conditions at: UTSB (BUKHARA , UZ) observed 0700 UTC 20 January 2019
Temperature: 3.0°C (37°F)
Dewpoint: -3.0°C (27°F) [RH = 65%]
Pressure (altimeter): 30.15 inches Hg (1021.0 mb)
Winds: from the SW (220 degrees) at 14 MPH (12 knots; 6.2 m/s)
Visibility: 6 or more miles (10+ km)
Ceiling: 2400 feet AGL
Clouds: broken clouds at 2400 feet AGL
Weather: no significant weather observed at this time

METAR text: UTSB 200630Z 22012KT 9999 FEW033 03/M03 Q1021 R01/CLRD70 NOSIG
Conditions at: UTSB (BUKHARA , UZ) observed 0630 UTC 20 January 2019
Temperature: 3.0°C (37°F)
Dewpoint: -3.0°C (27°F) [RH = 65%]
Pressure (altimeter): 30.15 inches Hg (1021.0 mb)
Winds: from the SW (220 degrees) at 14 MPH (12 knots; 6.2 m/s)
Visibility: 6 or more miles (10+ km)
Ceiling: at least 12,000 feet AGL
Clouds: few clouds at 3300 feet AGL
Weather: no significant weather observed at this time

METAR text: UTSB 200600Z 22012KT 9999 SCT013 OVC048CB 03/M01 Q1021 R01/CLRD70 NOSIG
Conditions at: UTSB (BUKHARA , UZ) observed 0600 UTC 20 January 2019
Temperature: 3.0°C (37°F)
Dewpoint: -1.0°C (30°F) [RH = 75%]
Pressure (altimeter): 30.15 inches Hg (1021.0 mb)
Winds: from the SW (220 degrees) at 14 MPH (12 knots; 6.2 m/s)
Visibility: 6 or more miles (10+ km)
Ceiling: 4800 feet AGL
Clouds: scattered clouds at 1300 feet AGL
overcast cloud deck at 4800 feet AGL
Weather: no significant weather observed at this time

METAR text: UTSB 200530Z 23014KT 9999 SCT013 OVC048CB 03/M01 Q1020 R01/CLRD70 NOSIG
Conditions at: UTSB (BUKHARA , UZ) observed 0530 UTC 20 January 2019
Temperature: 3.0°C (37°F)
Dewpoint: -1.0°C (30°F) [RH = 75%]
Pressure (altimeter): 30.12 inches Hg (1020.0 mb)
Winds: from the SW (230 degrees) at 16 MPH (14 knots; 7.2 m/s)
Visibility: 6 or more miles (10+ km)
Ceiling: 4800 feet AGL
Clouds: scattered clouds at 1300 feet AGL
overcast cloud deck at 4800 feet AGL
Weather: no significant weather observed at this time

METAR text: UTSB 200500Z 21010KT 9999 -SHGS OVC042CB 03/M01 Q1020 R01/CLRD70 NOSIG
Conditions at: UTSB (BUKHARA , UZ) observed 0500 UTC 20 January 2019
Temperature: 3.0°C (37°F)
Dewpoint: -1.0°C (30°F) [RH = 75%]
Pressure (altimeter): 30.12 inches Hg (1020.0 mb)
Winds: from the SSW (210 degrees) at 12 MPH (10 knots; 5.1 m/s)
Visibility: 6 or more miles (10+ km)
Ceiling: 4200 feet AGL
Clouds: overcast cloud deck at 4200 feet AGL
Weather: -SHGS  (unknown weather)

METAR text: UTSB 200430Z 21008KT 9999 OVC028 03/M01 Q1019 R01/CLRD70 NOSIG
Conditions at: UTSB (BUKHARA , UZ) observed 0430 UTC 20 January 2019
Temperature: 3.0°C (37°F)
Dewpoint: -1.0°C (30°F) [RH = 75%]
Pressure (altimeter): 30.09 inches Hg (1019.0 mb)
Winds: from the SSW (210 degrees) at 9 MPH (8 knots; 4.1 m/s)
Visibility: 6 or more miles (10+ km)
Ceiling: 2800 feet AGL
Clouds: overcast cloud deck at 2800 feet AGL
Weather: no significant weather observed at this time

METAR text: UTSB 200400Z 22008KT 9999 BKN035 03/M01 Q1019 R01/CLRD70 NOSIG
Conditions at: UTSB (BUKHARA , UZ) observed 0400 UTC 20 January 2019
Temperature: 3.0°C (37°F)
Dewpoint: -1.0°C (30°F) [RH = 75%]
Pressure (altimeter): 30.09 inches Hg (1019.0 mb)
Winds: from the SW (220 degrees) at 9 MPH (8 knots; 4.1 m/s)
Visibility: 6 or more miles (10+ km)
Ceiling: 3500 feet AGL
Clouds: broken clouds at 3500 feet AGL
Weather: no significant weather observed at this time

METAR text: UTSB 200330Z 22006KT CAVOK 03/M01 Q1018 R01/CLRD70 NOSIG
Conditions at: UTSB (BUKHARA , UZ) observed 0330 UTC 20 January 2019
Temperature: 3.0°C (37°F)
Dewpoint: -1.0°C (30°F) [RH = 75%]
Pressure (altimeter): 30.06 inches Hg (1018.0 mb)
Winds: from the SW (220 degrees) at 7 MPH (6 knots; 3.1 m/s)
Visibility: 6 or more miles (10+ km)
Ceiling: ceiling and visibility are OK
Clouds: unknown
Weather: no significant weather observed at this time

METAR text: UTSB 200300Z 23008KT CAVOK 03/M01 Q1018 R01/CLRD70 NOSIG
Conditions at: UTSB (BUKHARA , UZ) observed 0300 UTC 20 January 2019
Temperature: 3.0°C (37°F)
Dewpoint: -1.0°C (30°F) [RH = 75%]
Pressure (altimeter): 30.06 inches Hg (1018.0 mb)
Winds: from the SW (230 degrees) at 9 MPH (8 knots; 4.1 m/s)
Visibility: 6 or more miles (10+ km)
Ceiling: ceiling and visibility are OK
Clouds: unknown
Weather: no significant weather observed at this time

METAR text: UTSB 200230Z 23008KT CAVOK 03/M01 Q1017 R01/CLRD70 NOSIG
Conditions at: UTSB (BUKHARA , UZ) observed 0230 UTC 20 January 2019
Temperature: 3.0°C (37°F)
Dewpoint: -1.0°C (30°F) [RH = 75%]
Pressure (altimeter): 30.03 inches Hg (1017.0 mb)
Winds: from the SW (230 degrees) at 9 MPH (8 knots; 4.1 m/s)
Visibility: 6 or more miles (10+ km)
Ceiling: ceiling and visibility are OK
Clouds: unknown
Weather: no significant weather observed at this time

METAR text: UTSB 200200Z 23008KT CAVOK 03/M01 Q1017 R01/CLRD70 NOSIG
Conditions at: UTSB (BUKHARA , UZ) observed 0200 UTC 20 January 2019
Temperature: 3.0°C (37°F)
Dewpoint: -1.0°C (30°F) [RH = 75%]
Pressure (altimeter): 30.03 inches Hg (1017.0 mb)
Winds: from the SW (230 degrees) at 9 MPH (8 knots; 4.1 m/s)
Visibility: 6 or more miles (10+ km)
Ceiling: ceiling and visibility are OK
Clouds: unknown
Weather: no significant weather observed at this time

METAR text: UTSB 200130Z 24010KT CAVOK 03/M02 Q1017 R01/CLRD70 NOSIG
Conditions at: UTSB (BUKHARA , UZ) observed 0130 UTC 20 January 2019
Temperature: 3.0°C (37°F)
Dewpoint: -2.0°C (28°F) [RH = 70%]
Pressure (altimeter): 30.03 inches Hg (1017.0 mb)
Winds: from the WSW (240 degrees) at 12 MPH (10 knots; 5.1 m/s)
Visibility: 6 or more miles (10+ km)
Ceiling: ceiling and visibility are OK
Clouds: unknown
Weather: no significant weather observed at this time

METAR text: UTSB 200100Z 24008KT 9999 SCT033 04/M02 Q1017 R01/CLRD70 NOSIG
Conditions at: UTSB (BUKHARA , UZ) observed 0100 UTC 20 January 2019
Temperature: 4.0°C (39°F)
Dewpoint: -2.0°C (28°F) [RH = 65%]
Pressure (altimeter): 30.03 inches Hg (1017.0 mb)
Winds: from the WSW (240 degrees) at 9 MPH (8 knots; 4.1 m/s)
Visibility: 6 or more miles (10+ km)
Ceiling: at least 12,000 feet AGL
Clouds: scattered clouds at 3300 feet AGL
Weather: no significant weather observed at this time

METAR text: UTSB 200030Z 24006KT CAVOK 04/M02 Q1017 R01/CLRD70 NOSIG
Conditions at: UTSB (BUKHARA , UZ) observed 0030 UTC 20 January 2019
Temperature: 4.0°C (39°F)
Dewpoint: -2.0°C (28°F) [RH = 65%]
Pressure (altimeter): 30.03 inches Hg (1017.0 mb)
Winds: from the WSW (240 degrees) at 7 MPH (6 knots; 3.1 m/s)
Visibility: 6 or more miles (10+ km)
Ceiling: ceiling and visibility are OK
Clouds: unknown
Weather: no significant weather observed at this time

METAR text: UTSB 200000Z 25008KT 9999 SCT027 04/M02 Q1017 R01/CLRD70 NOSIG
Conditions at: UTSB (BUKHARA , UZ) observed 0000 UTC 20 January 2019
Temperature: 4.0°C (39°F)
Dewpoint: -2.0°C (28°F) [RH = 65%]
Pressure (altimeter): 30.03 inches Hg (1017.0 mb)
Winds: from the WSW (250 degrees) at 9 MPH (8 knots; 4.1 m/s)
Visibility: 6 or more miles (10+ km)
Ceiling: at least 12,000 feet AGL
Clouds: scattered clouds at 2700 feet AGL
Weather: no significant weather observed at this time

METAR text: UTSB 192330Z 24006KT 9999 SCT033 04/M02 Q1017 R01/CLRD70 NOSIG
Conditions at: UTSB (BUKHARA , UZ) observed 2330 UTC 19 January 2019
Temperature: 4.0°C (39°F)
Dewpoint: -2.0°C (28°F) [RH = 65%]
Pressure (altimeter): 30.03 inches Hg (1017.0 mb)
Winds: from the WSW (240 degrees) at 7 MPH (6 knots; 3.1 m/s)
Visibility: 6 or more miles (10+ km)
Ceiling: at least 12,000 feet AGL
Clouds: scattered clouds at 3300 feet AGL
Weather: no significant weather observed at this time

METAR text: UTSB 192300Z 25008KT CAVOK 04/M01 Q1017 R01/CLRD70 NOSIG
Conditions at: UTSB (BUKHARA , UZ) observed 2300 UTC 19 January 2019
Temperature: 4.0°C (39°F)
Dewpoint: -1.0°C (30°F) [RH = 70%]
Pressure (altimeter): 30.03 inches Hg (1017.0 mb)
Winds: from the WSW (250 degrees) at 9 MPH (8 knots; 4.1 m/s)
Visibility: 6 or more miles (10+ km)
Ceiling: ceiling and visibility are OK
Clouds: unknown
Weather: no significant weather observed at this time

METAR text: UTSB 192230Z 23010KT CAVOK 04/M01 Q1017 R01/CLRD70 NOSIG
Conditions at: UTSB (BUKHARA , UZ) observed 2230 UTC 19 January 2019
Temperature: 4.0°C (39°F)
Dewpoint: -1.0°C (30°F) [RH = 70%]
Pressure (altimeter): 30.03 inches Hg (1017.0 mb)
Winds: from the SW (230 degrees) at 12 MPH (10 knots; 5.1 m/s)
Visibility: 6 or more miles (10+ km)
Ceiling: ceiling and visibility are OK
Clouds: unknown
Weather: no significant weather observed at this time

METAR text: UTSB 192200Z 26006KT CAVOK 04/M01 Q1016 R01/CLRD70 NOSIG
Conditions at: UTSB (BUKHARA , UZ) observed 2200 UTC 19 January 2019
Temperature: 4.0°C (39°F)
Dewpoint: -1.0°C (30°F) [RH = 70%]
Pressure (altimeter): 30.00 inches Hg (1016.0 mb)
Winds: from the W (260 degrees) at 7 MPH (6 knots; 3.1 m/s)
Visibility: 6 or more miles (10+ km)
Ceiling: ceiling and visibility are OK
Clouds: unknown
Weather: no significant weather observed at this time

METAR text: UTSB 192130Z 24008KT CAVOK 04/M02 Q1017 R01/CLRD70 NOSIG
Conditions at: UTSB (BUKHARA , UZ) observed 2130 UTC 19 January 2019
Temperature: 4.0°C (39°F)
Dewpoint: -2.0°C (28°F) [RH = 65%]
Pressure (altimeter): 30.03 inches Hg (1017.0 mb)
Winds: from the WSW (240 degrees) at 9 MPH (8 knots; 4.1 m/s)
Visibility: 6 or more miles (10+ km)
Ceiling: ceiling and visibility are OK
Clouds: unknown
Weather: no significant weather observed at this time

METAR text: UTSB 192100Z 23006KT CAVOK 03/M01 Q1017 R01/CLRD70 NOSIG
Conditions at: UTSB (BUKHARA , UZ) observed 2100 UTC 19 January 2019
Temperature: 3.0°C (37°F)
Dewpoint: -1.0°C (30°F) [RH = 75%]
Pressure (altimeter): 30.03 inches Hg (1017.0 mb)
Winds: from the SW (230 degrees) at 7 MPH (6 knots; 3.1 m/s)
Visibility: 6 or more miles (10+ km)
Ceiling: ceiling and visibility are OK
Clouds: unknown
Weather: no significant weather observed at this time

METAR text: UTSB 192030Z 23006KT CAVOK 03/M01 Q1017 R01/CLRD70 NOSIG
Conditions at: UTSB (BUKHARA , UZ) observed 2030 UTC 19 January 2019
Temperature: 3.0°C (37°F)
Dewpoint: -1.0°C (30°F) [RH = 75%]
Pressure (altimeter): 30.03 inches Hg (1017.0 mb)
Winds: from the SW (230 degrees) at 7 MPH (6 knots; 3.1 m/s)
Visibility: 6 or more miles (10+ km)
Ceiling: ceiling and visibility are OK
Clouds: unknown
Weather: no significant weather observed at this time

METAR text: UTSB 192000Z 22006KT CAVOK 03/M01 Q1017 R01/CLRD70 NOSIG
Conditions at: UTSB (BUKHARA , UZ) observed 2000 UTC 19 January 2019
Temperature: 3.0°C (37°F)
Dewpoint: -1.0°C (30°F) [RH = 75%]
Pressure (altimeter): 30.03 inches Hg (1017.0 mb)
Winds: from the SW (220 degrees) at 7 MPH (6 knots; 3.1 m/s)
Visibility: 6 or more miles (10+ km)
Ceiling: ceiling and visibility are OK
Clouds: unknown
Weather: no significant weather observed at this time

METAR text: UTSB 191930Z 22004KT CAVOK 03/M01 Q1016 R01/CLRD70 NOSIG
Conditions at: UTSB (BUKHARA , UZ) observed 1930 UTC 19 January 2019
Temperature: 3.0°C (37°F)
Dewpoint: -1.0°C (30°F) [RH = 75%]
Pressure (altimeter): 30.00 inches Hg (1016.0 mb)
Winds: from the SW (220 degrees) at 5 MPH (4 knots; 2.1 m/s)
Visibility: 6 or more miles (10+ km)
Ceiling: ceiling and visibility are OK
Clouds: unknown
Weather: no significant weather observed at this time

METAR text: UTSB 191900Z 23004KT CAVOK 03/M01 Q1017 R01/CLRD70 NOSIG
Conditions at: UTSB (BUKHARA , UZ) observed 1900 UTC 19 January 2019
Temperature: 3.0°C (37°F)
Dewpoint: -1.0°C (30°F) [RH = 75%]
Pressure (altimeter): 30.03 inches Hg (1017.0 mb)
Winds: from the SW (230 degrees) at 5 MPH (4 knots; 2.1 m/s)
Visibility: 6 or more miles (10+ km)
Ceiling: ceiling and visibility are OK
Clouds: unknown
Weather: no significant weather observed at this time

METAR text: UTSB 191830Z 21004KT CAVOK 03/M01 Q1017 R01/CLRD70 NOSIG
Conditions at: UTSB (BUKHARA , UZ) observed 1830 UTC 19 January 2019
Temperature: 3.0°C (37°F)
Dewpoint: -1.0°C (30°F) [RH = 75%]
Pressure (altimeter): 30.03 inches Hg (1017.0 mb)
Winds: from the SSW (210 degrees) at 5 MPH (4 knots; 2.1 m/s)
Visibility: 6 or more miles (10+ km)
Ceiling: ceiling and visibility are OK
Clouds: unknown
Weather: no significant weather observed at this time

METAR text: UTSB 191800Z 14004KT CAVOK 04/M02 Q1017 R01/CLRD70 NOSIG
Conditions at: UTSB (BUKHARA , UZ) observed 1800 UTC 19 January 2019
Temperature: 4.0°C (39°F)
Dewpoint: -2.0°C (28°F) [RH = 65%]
Pressure (altimeter): 30.03 inches Hg (1017.0 mb)
Winds: from the SE (140 degrees) at 5 MPH (4 knots; 2.1 m/s)
Visibility: 6 or more miles (10+ km)
Ceiling: ceiling and visibility are OK
Clouds: unknown
Weather: no significant weather observed at this time

METAR text: UTSB 191730Z 14002KT CAVOK 04/M01 Q1017 R01/CLRD70 NOSIG
Conditions at: UTSB (BUKHARA , UZ) observed 1730 UTC 19 January 2019
Temperature: 4.0°C (39°F)
Dewpoint: -1.0°C (30°F) [RH = 70%]
Pressure (altimeter): 30.03 inches Hg (1017.0 mb)
Winds: from the SE (140 degrees) at 2 MPH (2 knots; 1.0 m/s)
Visibility: 6 or more miles (10+ km)
Ceiling: ceiling and visibility are OK
Clouds: unknown
Weather: no significant weather observed at this time

METAR text: UTSB 191700Z 00000KT CAVOK 04/M01 Q1017 R01/CLRD70 NOSIG
Conditions at: UTSB (BUKHARA , UZ) observed 1700 UTC 19 January 2019
Temperature: 4.0°C (39°F)
Dewpoint: -1.0°C (30°F) [RH = 70%]
Pressure (altimeter): 30.03 inches Hg (1017.0 mb)
Winds: calm
Visibility: 6 or more miles (10+ km)
Ceiling: ceiling and visibility are OK
Clouds: unknown
Weather: no significant weather observed at this time

METAR text: UTSB 191630Z 00000KT CAVOK 04/M01 Q1017 R01/CLRD70 NOSIG
Conditions at: UTSB (BUKHARA , UZ) observed 1630 UTC 19 January 2019
Temperature: 4.0°C (39°F)
Dewpoint: -1.0°C (30°F) [RH = 70%]
Pressure (altimeter): 30.03 inches Hg (1017.0 mb)
Winds: calm
Visibility: 6 or more miles (10+ km)
Ceiling: ceiling and visibility are OK
Clouds: unknown
Weather: no significant weather observed at this time

METAR text: UTSB 191600Z 07002KT CAVOK 04/M00 Q1017 R01/CLRD70 NOSIG
Conditions at: UTSB (BUKHARA , UZ) observed 1600 UTC 19 January 2019
Temperature: 4.0°C (39°F)
Dewpoint: 0.0°C (32°F) [RH = 75%]
Pressure (altimeter): 30.03 inches Hg (1017.0 mb)
Winds: from the ENE (70 degrees) at 2 MPH (2 knots; 1.0 m/s)
Visibility: 6 or more miles (10+ km)
Ceiling: ceiling and visibility are OK
Clouds: unknown
Weather: no significant weather observed at this time

METAR text: UTSB 191530Z VRB02KT 9999 FEW033 04/M01 Q1017 R01/CLRD70 NOSIG
Conditions at: UTSB (BUKHARA , UZ) observed 1530 UTC 19 January 2019
Temperature: 4.0°C (39°F)
Dewpoint: -1.0°C (30°F) [RH = 70%]
Pressure (altimeter): 30.03 inches Hg (1017.0 mb)
Winds: variable direction winds at 2 MPH (2 knots; 1.0 m/s)
Visibility: 6 or more miles (10+ km)
Ceiling: at least 12,000 feet AGL
Clouds: few clouds at 3300 feet AGL
Weather: no significant weather observed at this time

METAR text: UTSB 191500Z VRB02KT CAVOK 04/M01 Q1017 R01/CLRD70 NOSIG
Conditions at: UTSB (BUKHARA , UZ) observed 1500 UTC 19 January 2019
Temperature: 4.0°C (39°F)
Dewpoint: -1.0°C (30°F) [RH = 70%]
Pressure (altimeter): 30.03 inches Hg (1017.0 mb)
Winds: variable direction winds at 2 MPH (2 knots; 1.0 m/s)
Visibility: 6 or more miles (10+ km)
Ceiling: ceiling and visibility are OK
Clouds: unknown
Weather: no significant weather observed at this time

METAR text: UTSB 191430Z 06004KT 9999 FEW033 04/M01 Q1017 R01/CLRD70 NOSIG
Conditions at: UTSB (BUKHARA , UZ) observed 1430 UTC 19 January 2019
Temperature: 4.0°C (39°F)
Dewpoint: -1.0°C (30°F) [RH = 70%]
Pressure (altimeter): 30.03 inches Hg (1017.0 mb)
Winds: from the ENE (60 degrees) at 5 MPH (4 knots; 2.1 m/s)
Visibility: 6 or more miles (10+ km)
Ceiling: at least 12,000 feet AGL
Clouds: few clouds at 3300 feet AGL
Weather: no significant weather observed at this time

METAR text: UTSB 191400Z 05002KT 9999 FEW033 04/M01 Q1017 R01/CLRD70 NOSIG
Conditions at: UTSB (BUKHARA , UZ) observed 1400 UTC 19 January 2019
Temperature: 4.0°C (39°F)
Dewpoint: -1.0°C (30°F) [RH = 70%]
Pressure (altimeter): 30.03 inches Hg (1017.0 mb)
Winds: from the NE (50 degrees) at 2 MPH (2 knots; 1.0 m/s)
Visibility: 6 or more miles (10+ km)
Ceiling: at least 12,000 feet AGL
Clouds: few clouds at 3300 feet AGL
Weather: no significant weather observed at this time

METAR text: UTSB 191330Z 05004KT 9999 FEW033 04/M01 Q1017 R01/CLRD70 NOSIG
Conditions at: UTSB (BUKHARA , UZ) observed 1330 UTC 19 January 2019
Temperature: 4.0°C (39°F)
Dewpoint: -1.0°C (30°F) [RH = 70%]
Pressure (altimeter): 30.03 inches Hg (1017.0 mb)
Winds: from the NE (50 degrees) at 5 MPH (4 knots; 2.1 m/s)
Visibility: 6 or more miles (10+ km)
Ceiling: at least 12,000 feet AGL
Clouds: few clouds at 3300 feet AGL
Weather: no significant weather observed at this time

METAR text: UTSB 191300Z 34002KT CAVOK 04/M02 Q1017 R19/CLRD70 NOSIG
Conditions at: UTSB (BUKHARA , UZ) observed 1300 UTC 19 January 2019
Temperature: 4.0°C (39°F)
Dewpoint: -2.0°C (28°F) [RH = 65%]
Pressure (altimeter): 30.03 inches Hg (1017.0 mb)
Winds: from the NNW (340 degrees) at 2 MPH (2 knots; 1.0 m/s)
Visibility: 6 or more miles (10+ km)
Ceiling: ceiling and visibility are OK
Clouds: unknown
Weather: no significant weather observed at this time

METAR text: UTSB 191230Z 35006KT CAVOK 04/M02 Q1016 R01/CLRD70 NOSIG
Conditions at: UTSB (BUKHARA , UZ) observed 1230 UTC 19 January 2019
Temperature: 4.0°C (39°F)
Dewpoint: -2.0°C (28°F) [RH = 65%]
Pressure (altimeter): 30.00 inches Hg (1016.0 mb)
Winds: from the N (350 degrees) at 7 MPH (6 knots; 3.1 m/s)
Visibility: 6 or more miles (10+ km)
Ceiling: ceiling and visibility are OK
Clouds: unknown
Weather: no significant weather observed at this time

METAR text: UTSB 191200Z 02004KT 330V060 CAVOK 04/M02 Q1016 R01/CLRD70 NOSIG
Conditions at: UTSB (BUKHARA , UZ) observed 1200 UTC 19 January 2019
Temperature: 4.0°C (39°F)
Dewpoint: -2.0°C (28°F) [RH = 65%]
Pressure (altimeter): 30.00 inches Hg (1016.0 mb)
Winds: from the NNE (20 degrees) at 5 MPH (4 knots; 2.1 m/s)
Visibility: 6 or more miles (10+ km)
Ceiling: ceiling and visibility are OK
Clouds: unknown
Weather: no significant weather observed at this time

METAR text: UTSB 191130Z 02004KT 320V050 9999 OVC046 04/M02 Q1016 R01/CLRD70 NOSIG
Conditions at: UTSB (BUKHARA , UZ) observed 1130 UTC 19 January 2019
Temperature: 4.0°C (39°F)
Dewpoint: -2.0°C (28°F) [RH = 65%]
Pressure (altimeter): 30.00 inches Hg (1016.0 mb)
Winds: from the NNE (20 degrees) at 5 MPH (4 knots; 2.1 m/s)
Visibility: 6 or more miles (10+ km)
Ceiling: 4600 feet AGL
Clouds: overcast cloud deck at 4600 feet AGL
Weather: no significant weather observed at this time

METAR text: UTSB 191100Z 35004KT 310V040 9999 OVC045 04/M02 Q1016 R01/CLRD70 NOSIG
Conditions at: UTSB (BUKHARA , UZ) observed 1100 UTC 19 January 2019
Temperature: 4.0°C (39°F)
Dewpoint: -2.0°C (28°F) [RH = 65%]
Pressure (altimeter): 30.00 inches Hg (1016.0 mb)
Winds: from the N (350 degrees) at 5 MPH (4 knots; 2.1 m/s)
Visibility: 6 or more miles (10+ km)
Ceiling: 4500 feet AGL
Clouds: overcast cloud deck at 4500 feet AGL
Weather: no significant weather observed at this time

METAR text: UTSB 191030Z 34004KT 310V050 9999 OVC045 04/M02 Q1017 R01/CLRD70 NOSIG
Conditions at: UTSB (BUKHARA , UZ) observed 1030 UTC 19 January 2019
Temperature: 4.0°C (39°F)
Dewpoint: -2.0°C (28°F) [RH = 65%]
Pressure (altimeter): 30.03 inches Hg (1017.0 mb)
Winds: from the NNW (340 degrees) at 5 MPH (4 knots; 2.1 m/s)
Visibility: 6 or more miles (10+ km)
Ceiling: 4500 feet AGL
Clouds: overcast cloud deck at 4500 feet AGL
Weather: no significant weather observed at this time

METAR text: UTSB 191000Z 33004KT 300V020 9999 OVC046 04/M02 Q1017 R19/CLRD70 NOSIG
Conditions at: UTSB (BUKHARA , UZ) observed 1000 UTC 19 January 2019
Temperature: 4.0°C (39°F)
Dewpoint: -2.0°C (28°F) [RH = 65%]
Pressure (altimeter): 30.03 inches Hg (1017.0 mb)
Winds: from the NNW (330 degrees) at 5 MPH (4 knots; 2.1 m/s)
Visibility: 6 or more miles (10+ km)
Ceiling: 4600 feet AGL
Clouds: overcast cloud deck at 4600 feet AGL
Weather: no significant weather observed at this time

METAR text: UTSB 190930Z 32006KT 280V350 9999 OVC047 04/M02 Q1017 R01/CLRD70 NOSIG
Conditions at: UTSB (BUKHARA , UZ) observed 0930 UTC 19 January 2019
Temperature: 4.0°C (39°F)
Dewpoint: -2.0°C (28°F) [RH = 65%]
Pressure (altimeter): 30.03 inches Hg (1017.0 mb)
Winds: from the NW (320 degrees) at 7 MPH (6 knots; 3.1 m/s)
Visibility: 6 or more miles (10+ km)
Ceiling: 4700 feet AGL
Clouds: overcast cloud deck at 4700 feet AGL
Weather: no significant weather observed at this time

METAR text: UTSB 190900Z 29006KT 9999 OVC049 04/M02 Q1017 R01/CLRD70 NOSIG
Conditions at: UTSB (BUKHARA , UZ) observed 0900 UTC 19 January 2019
Temperature: 4.0°C (39°F)
Dewpoint: -2.0°C (28°F) [RH = 65%]
Pressure (altimeter): 30.03 inches Hg (1017.0 mb)
Winds: from the WNW (290 degrees) at 7 MPH (6 knots; 3.1 m/s)
Visibility: 6 or more miles (10+ km)
Ceiling: 4900 feet AGL
Clouds: overcast cloud deck at 4900 feet AGL
Weather: no significant weather observed at this time

METAR text: UTSB 190830Z 28004KT 240V340 9999 OVC048 04/M02 Q1018 R01/CLRD70 NOSIG
Conditions at: UTSB (BUKHARA , UZ) observed 0830 UTC 19 January 2019
Temperature: 4.0°C (39°F)
Dewpoint: -2.0°C (28°F) [RH = 65%]
Pressure (altimeter): 30.06 inches Hg (1018.0 mb)
Winds: from the W (280 degrees) at 5 MPH (4 knots; 2.1 m/s)
Visibility: 6 or more miles (10+ km)
Ceiling: 4800 feet AGL
Clouds: overcast cloud deck at 4800 feet AGL
Weather: no significant weather observed at this time

METAR text: UTSB 190800Z 27006KT 220V320 9999 OVC048 04/M02 Q1018 R01/CLRD70 NOSIG
Conditions at: UTSB (BUKHARA , UZ) observed 0800 UTC 19 January 2019
Temperature: 4.0°C (39°F)
Dewpoint: -2.0°C (28°F) [RH = 65%]
Pressure (altimeter): 30.06 inches Hg (1018.0 mb)
Winds: from the W (270 degrees) at 7 MPH (6 knots; 3.1 m/s)
Visibility: 6 or more miles (10+ km)
Ceiling: 4800 feet AGL
Clouds: overcast cloud deck at 4800 feet AGL
Weather: no significant weather observed at this time

METAR text: UTSB 190730Z 26004KT 220V290 9999 OVC049CB 03/M02 Q1019 R01/CLRD70 NOSIG
Conditions at: UTSB (BUKHARA , UZ) observed 0730 UTC 19 January 2019
Temperature: 3.0°C (37°F)
Dewpoint: -2.0°C (28°F) [RH = 70%]
Pressure (altimeter): 30.09 inches Hg (1019.0 mb)
Winds: from the W (260 degrees) at 5 MPH (4 knots; 2.1 m/s)
Visibility: 6 or more miles (10+ km)
Ceiling: 4900 feet AGL
Clouds: overcast cloud deck at 4900 feet AGL
Weather: no significant weather observed at this time

METAR text: UTSB 190700Z 19004KT 170V230 9999 OVC051CB 03/M01 Q1019 R01/CLRD70 NOSIG
Conditions at: UTSB (BUKHARA , UZ) observed 0700 UTC 19 January 2019
Temperature: 3.0°C (37°F)
Dewpoint: -1.0°C (30°F) [RH = 75%]
Pressure (altimeter): 30.09 inches Hg (1019.0 mb)
Winds: from the S (190 degrees) at 5 MPH (4 knots; 2.1 m/s)
Visibility: 6 or more miles (10+ km)
Ceiling: 5100 feet AGL
Clouds: overcast cloud deck at 5100 feet AGL
Weather: no significant weather observed at this time

METAR text: UTSB 190630Z 24004KT 200V290 9999 -SHGS OVC054CB 03/M02 Q1020 R01/CLRD70 NOSIG
Conditions at: UTSB (BUKHARA , UZ) observed 0630 UTC 19 January 2019
Temperature: 3.0°C (37°F)
Dewpoint: -2.0°C (28°F) [RH = 70%]
Pressure (altimeter): 30.12 inches Hg (1020.0 mb)
Winds: from the WSW (240 degrees) at 5 MPH (4 knots; 2.1 m/s)
Visibility: 6 or more miles (10+ km)
Ceiling: 5400 feet AGL
Clouds: overcast cloud deck at 5400 feet AGL
Weather: -SHGS  (unknown weather)

METAR text: UTSB 190600Z 26006KT CAVOK 03/M01 Q1020 R19/190060 NOSIG
Conditions at: UTSB (BUKHARA , UZ) observed 0600 UTC 19 January 2019
Temperature: 3.0°C (37°F)
Dewpoint: -1.0°C (30°F) [RH = 75%]
Pressure (altimeter): 30.12 inches Hg (1020.0 mb)
Winds: from the W (260 degrees) at 7 MPH (6 knots; 3.1 m/s)
Visibility: 6 or more miles (10+ km)
Ceiling: ceiling and visibility are OK
Clouds: unknown
Weather: no significant weather observed at this time

Forecast for: UTSB (BUKHARA , UZ)
Text: TAF UTSB 201700Z 2018/2118 VRB03KT 7000 FEW010 SCT040
Forecast period: 1800 UTC 20 January 2019 to 1800 UTC 21 January 2019
Forecast type: FROM: standard forecast or significant change
Winds: variable direction winds at 3 MPH (3 knots; 1.5 m/s)
Visibility: 4 miles (7 km)
Ceiling: at least 12,000 feet AGL
Clouds: few clouds at 1000 feet AGL
scattered clouds at 4000 feet AGL
Weather: no significant weather forecast for this period
Text: TEMPO 2018/2021 24012KT 3000 -SHSNRA BR BKN006 OVC025CB
Forecast period: 1800 to 2100 UTC 20 January 2019
Forecast type: TEMPORARY: The following changes expected for less than half the time period
Winds: from the WSW (240 degrees) at 14 MPH (12 knots; 6.2 m/s)
Visibility: 1.86 miles (2.99 km)
Ceiling: 600 feet AGL
Clouds: broken clouds at 600 feet AGL
overcast cloud deck at 2500 feet AGL
Weather: -SHSN -SHRA BR  (light snow showers, light rain showers, mist)
Text: TEMPO 2021/2105 26012KT 0500 FZFG VV002
Forecast period: 2100 UTC 20 January 2019 to 0500 UTC 21 January 2019
Forecast type: TEMPORARY: The following changes expected for less than half the time period
Winds: from the W (260 degrees) at 14 MPH (12 knots; 6.2 m/s)
Visibility: 0.31 miles (0.50 km)
Ceiling: indefinite ceiling with vertical visibility of 200 feet AGL
Clouds: obscured sky
Weather: FZFG  (freezing fog)